Nearby METAR Reports

 

KSHV - Shreveport, Louisiana, USA
Distance from station: NW 8mi, 13km
Updated: Thu, 22-Feb-2024 12:56am CST
Overcast
Overcast
 Wind from S
Wind: S 16 mph , 26 km/h, Gust: 25 mph , 41 km/h
Temperature: 66°F , 19°C
Dew Point: 55°F , 13°C
Humidity: 68%
Barometer: 29.92 inHg , 1013.2 hPa
Clouds: Overcast
Visibility: 10 miles , 16 km
Cloud details: Overcast 25000 ft
2024/02/22 06:56 KSHV 220656Z 19014G22KT 10SM OVC250 19/13 A2992 RMK SLPNO
KBAD - Barksdale Afb, Louisiana, USA
Distance from station: NNE 9mi, 14km
Updated: Thu, 22-Feb-2024 1:55am CST
Clear
Clear
 Wind from S
Wind: S 15 mph , 24 km/h, Gust: 21 mph , 33 km/h
Temperature: 63°F , 17°C
Dew Point: 55°F , 13°C
Humidity: 77%
Barometer: 29.90 inHg , 1012.5 hPa
Clouds: Clear
Visibility: 10 miles , 16 km
2024/02/22 07:55 KBAD 220755Z AUTO 19013G18KT 10SM CLR 17/13 A2990 RMK AO2 SLPNO T01740131
KDTN - Shreveport/Dwntn, Louisiana, USA
Distance from station: N 12mi, 19km
Updated: Thu, 22-Feb-2024 12:53am CST
Clear
Clear
 Wind from S
Wind: S 17 mph , 28 km/h, Gust: 31 mph , 50 km/h
Temperature: 64°F , 18°C
Dew Point: 54°F , 12°C
Humidity: 68%
Barometer: 29.92 inHg , 1013.2 hPa
Clouds: Clear
Visibility: 10 miles , 16 km
2024/02/22 06:53 KDTN 220653Z AUTO 19015G27KT 10SM CLR 18/12 A2992 RMK AO2 PK WND 20030/0633 SLP130 T01830122
 
K3F3 - Mansfield, Louisiana, USA
Distance from station: S 22mi, 36km
Updated: Thu, 22-Feb-2024 12:55am CST
Partly cloudy
Partly cloudy
 Wind from S
Wind: S 15 mph , 24 km/h, Gust: 21 mph , 33 km/h
Temperature: 64°F , 18°C
Dew Point: 57°F , 14°C
Humidity: 78%
Barometer: 29.99 inHg , 1015.6 hPa
Clouds: Partly cloudy
Visibility: 10 miles , 16 km
Cloud details: Partly cloudy 3200 ft
2024/02/22 06:55 K3F3 220655Z AUTO 18013G18KT 10SM SCT032 18/14 A2999 RMK AO2 T01760140
KASL - Marshall, Texas, USA
Distance from station: WNW 35mi, 56km
Updated: Thu, 22-Feb-2024 12:55am CST
Clear
Clear
 Wind from SSW
Wind: SSW 16 mph , 26 km/h, Gust: 23 mph , 37 km/h
Temperature: 63°F , 17°C
Dew Point: 57°F , 14°C
Humidity: 83%
Barometer: 29.89 inHg , 1012.2 hPa
Clouds: Clear
Visibility: 10 miles , 16 km
2024/02/22 06:55 KASL 220655Z AUTO 20014G20KT 10SM CLR 17/14 A2989 RMK AO2 T01700144 $
KF17 - Center, Texas, USA
Distance from station: SSW 46mi, 73km
Updated: Thu, 22-Feb-2024 12:55am CST
Partly cloudy
Partly cloudy
 Wind from S
Wind: S 9 mph , 15 km/h, Gust: 18 mph , 30 km/h
Temperature: 64°F , 18°C
Dew Point: 55°F , 13°C
Humidity: 73%
Barometer: 29.97 inHg , 1014.9 hPa
Clouds: Partly cloudy
Visibility: 10 miles , 16 km
Cloud details: Partly cloudy 2700 ft
Partly cloudy 3300 ft
2024/02/22 06:55 KF17 220655Z AUTO 18008G16KT 10SM SCT027 SCT033 18/13 A2997 RMK AO2
 
KGGG - Longview, Texas, USA
Distance from station: W 58mi, 93km
Updated: Thu, 22-Feb-2024 12:53am CST
Clear
Clear
 Wind from S
Wind: S 18 mph , 30 km/h
Temperature: 64°F , 18°C
Barometer: 29.89 inHg , 1012.2 hPa
Clouds: Clear
Visibility: 10 miles , 16 km
2024/02/22 06:53 KGGG 220653Z AUTO 19016KT 10SM CLR 18/ A2989 RMK AO2 SLP119 T0178 $
KIER - Natchitoches, Louisiana, USA
Distance from station: SE 58mi, 93km
Updated: Thu, 22-Feb-2024 12:55am CST
Overcast
Overcast
 Wind from S
Wind: S 6 mph , 9 km/h
Temperature: 64°F , 18°C
Dew Point: 57°F , 14°C
Humidity: 78%
Barometer: 29.99 inHg , 1015.6 hPa
Clouds: Overcast
Visibility: 10 miles , 16 km
Cloud details: Overcast 3600 ft
2024/02/22 06:55 KIER 220655Z AUTO 18005KT 10SM OVC036 18/14 A2999 RMK AO2 T01760135
KTXK - Texarkana, Arkansas, USA
Distance from station: NNW 75mi, 121km
Updated: Thu, 22-Feb-2024 12:53am CST
Few Clouds
Few Clouds
 Wind from S
Wind: S 16 mph , 26 km/h, Gust: 28 mph , 44 km/h
Temperature: 64°F , 18°C
Dew Point: 54°F , 12°C
Humidity: 68%
Barometer: 29.87 inHg , 1011.5 hPa
Clouds: Few Clouds
Visibility: 10 miles , 16 km
Cloud details: Few Clouds 2400 ft
2024/02/22 06:53 KTXK 220653Z AUTO 19014G24KT 10SM FEW024 18/12 A2987 RMK AO2 SLP110 T01780122
 
KMCJ - Houston/Univ, Texas, USA
Distance from station: SSE 7mi, 11km
Updated: Thu, 22-Feb-2024 12:55am CST
Overcast
Overcast
 Wind from S
Wind: S 14 mph , 22 km/h
Temperature: 64°F , 18°C
Dew Point: 59°F , 15°C
Humidity: 83%
Barometer: 29.95 inHg , 1014.2 hPa
Clouds: Overcast
Visibility: 10 miles , 16 km
Cloud details: Overcast 2900 ft
2024/02/22 06:55 KMCJ 220655Z AUTO 18012KT 150V210 10SM OVC029 18/15 A2995 RMK A01
KIAH - Houston/Intnl, Texas, USA
Distance from station: NNE 14mi, 23km
Updated: Thu, 22-Feb-2024 12:53am CST
Overcast
Overcast
 Wind from S
Wind: S 8 mph , 13 km/h
Temperature: 66°F , 19°C
Dew Point: 57°F , 14°C
Humidity: 73%
Barometer: 29.96 inHg , 1014.6 hPa
Clouds: Overcast
Visibility: 10 miles , 16 km
Cloud details: Mostly cloudy 3000 ft
Overcast 25000 ft
2024/02/22 06:53 KIAH 220653Z 17007KT 10SM BKN030 OVC250 19/14 A2996 RMK AO2 SLP144 T01890144
KNEW - New Orleans/Lake, Louisiana, USA
Distance from station: NE 7mi, 11km
Updated: Thu, 22-Feb-2024 12:53am CST
Mist, Clear
Mist, Clear
 Wind from ESE
Wind: ESE 6 mph , 9 km/h
Temperature: 57°F , 14°C
Dew Point: 54°F , 12°C
Humidity: 88%
Barometer: 30.09 inHg , 1019 hPa
Summary: Mist
Clouds: Clear
Visibility: 6 miles , 10 km
2024/02/22 06:53 KNEW 220653Z AUTO 11005KT 6SM BR CLR 14/12 A3009 RMK AO2 SLP182 T01440122
 
KMSY - New Orleans/Intl, Louisiana, USA
Distance from station: WNW 9mi, 15km
Updated: Thu, 22-Feb-2024 12:53am CST
Mostly cloudy
Mostly cloudy
 Wind from calm
Wind: Calm
Temperature: 57°F , 14°C
Dew Point: 55°F , 13°C
Humidity: 94%
Barometer: 30.08 inHg , 1018.6 hPa
Clouds: Mostly cloudy
Visibility: 8 miles , 13 km
Cloud details: Mostly cloudy 2900 ft
2024/02/22 06:53 KMSY 220653Z 00000KT 8SM BKN029 14/13 A3008 RMK AO2 SLP190 T01390128
Citizen Weather Observer Program

Free counters!


Free counters!